sensor_id;sensor_type;location;lat;lon;timestamp;temperature;humidity
68251;DHT22;55066;51.560;4.642;2023-02-26T00:02:14;0.63;99.99
68251;DHT22;55066;51.560;4.642;2023-02-26T00:04:40;0.59;99.99
68251;DHT22;55066;51.560;4.642;2023-02-26T00:07:05;0.64;99.99
68251;DHT22;55066;51.560;4.642;2023-02-26T00:09:31;0.80;99.99
68251;DHT22;55066;51.560;4.642;2023-02-26T00:11:57;0.81;99.99
68251;DHT22;55066;51.560;4.642;2023-02-26T00:14:23;0.74;99.99
68251;DHT22;55066;51.560;4.642;2023-02-26T00:19:30;0.66;99.99
68251;DHT22;55066;51.560;4.642;2023-02-26T00:21:55;0.69;99.99
68251;DHT22;55066;51.560;4.642;2023-02-26T00:24:21;0.57;99.99
68251;DHT22;55066;51.560;4.642;2023-02-26T00:26:46;0.54;99.99
68251;DHT22;55066;51.560;4.642;2023-02-26T00:29:12;0.59;99.99
68251;DHT22;55066;51.560;4.642;2023-02-26T00:31:38;0.53;99.99
68251;DHT22;55066;51.560;4.642;2023-02-26T00:34:03;0.46;99.99
68251;DHT22;55066;51.560;4.642;2023-02-26T00:36:43;0.52;99.99
68251;DHT22;55066;51.560;4.642;2023-02-26T00:41:57;0.70;99.99
68251;DHT22;55066;51.560;4.642;2023-02-26T00:44:23;0.66;99.99
68251;DHT22;55066;51.560;4.642;2023-02-26T00:47:08;0.67;99.99
68251;DHT22;55066;51.560;4.642;2023-02-26T00:52:38;0.83;99.18
68251;DHT22;55066;51.560;4.642;2023-02-26T00:55:04;0.79;99.81
68251;DHT22;55066;51.560;4.642;2023-02-26T00:57:30;0.74;99.99
68251;DHT22;55066;51.560;4.642;2023-02-26T00:59:55;0.84;99.50
68251;DHT22;55066;51.560;4.642;2023-02-26T01:02:21;0.83;99.99
68251;DHT22;55066;51.560;4.642;2023-02-26T01:04:47;0.70;99.48
68251;DHT22;55066;51.560;4.642;2023-02-26T01:07:13;0.66;99.43
68251;DHT22;55066;51.560;4.642;2023-02-26T01:09:39;0.67;99.99
68251;DHT22;55066;51.560;4.642;2023-02-26T01:12:10;0.56;99.99
68251;DHT22;55066;51.560;4.642;2023-02-26T01:14:38;0.63;99.99
68251;DHT22;55066;51.560;4.642;2023-02-26T01:17:11;0.63;99.99
68251;DHT22;55066;51.560;4.642;2023-02-26T01:27:32;1.00;99.99
68251;DHT22;55066;51.560;4.642;2023-02-26T01:29:58;1.12;99.65
68251;DHT22;55066;51.560;4.642;2023-02-26T01:32:41;1.12;98.15
68251;DHT22;55066;51.560;4.642;2023-02-26T01:35:44;1.29;98.24
68251;DHT22;55066;51.560;4.642;2023-02-26T01:41:15;1.47;97.77
68251;DHT22;55066;51.560;4.642;2023-02-26T01:46:27;1.56;97.42
68251;DHT22;55066;51.560;4.642;2023-02-26T01:48:57;1.60;96.38
68251;DHT22;55066;51.560;4.642;2023-02-26T01:51:48;1.56;96.03
68251;DHT22;55066;51.560;4.642;2023-02-26T01:54:16;1.63;95.88
68251;DHT22;55066;51.560;4.642;2023-02-26T01:56:43;1.81;94.92
68251;DHT22;55066;51.560;4.642;2023-02-26T01:59:13;1.93;94.18
68251;DHT22;55066;51.560;4.642;2023-02-26T02:01:39;1.87;94.18
68251;DHT22;55066;51.560;4.642;2023-02-26T02:04:10;1.84;94.43
68251;DHT22;55066;51.560;4.642;2023-02-26T02:06:36;1.84;93.01
68251;DHT22;55066;51.560;4.642;2023-02-26T02:09:04;1.80;92.61
68251;DHT22;55066;51.560;4.642;2023-02-26T02:11:30;1.84;92.83
68251;DHT22;55066;51.560;4.642;2023-02-26T02:14:11;1.70;91.78
68251;DHT22;55066;51.560;4.642;2023-02-26T02:17:18;1.78;91.59
68251;DHT22;55066;51.560;4.642;2023-02-26T02:28:34;1.38;91.72
68251;DHT22;55066;51.560;4.642;2023-02-26T02:31:10;1.39;92.14
68251;DHT22;55066;51.560;4.642;2023-02-26T02:33:52;1.35;91.76
68251;DHT22;55066;51.560;4.642;2023-02-26T02:36:36;1.34;91.43
68251;DHT22;55066;51.560;4.642;2023-02-26T02:39:10;1.12;92.19
68251;DHT22;55066;51.560;4.642;2023-02-26T02:41:53;1.17;92.11
68251;DHT22;55066;51.560;4.642;2023-02-26T02:44:22;1.14;92.40
68251;DHT22;55066;51.560;4.642;2023-02-26T02:46:51;1.17;91.83
68251;DHT22;55066;51.560;4.642;2023-02-26T02:49:28;1.02;92.22
68251;DHT22;55066;51.560;4.642;2023-02-26T02:52:00;0.97;92.55
68251;DHT22;55066;51.560;4.642;2023-02-26T02:57:21;0.90;91.85
68251;DHT22;55066;51.560;4.642;2023-02-26T02:59:53;0.88;91.79
68251;DHT22;55066;51.560;4.642;2023-02-26T03:05:07;0.87;91.35
68251;DHT22;55066;51.560;4.642;2023-02-26T03:07:37;0.91;93.15
68251;DHT22;55066;51.560;4.642;2023-02-26T03:10:05;0.80;91.65
68251;DHT22;55066;51.560;4.642;2023-02-26T03:12:31;0.73;90.86
68251;DHT22;55066;51.560;4.642;2023-02-26T03:14:58;0.77;91.25
68251;DHT22;55066;51.560;4.642;2023-02-26T03:17:42;0.81;91.06
68251;DHT22;55066;51.560;4.642;2023-02-26T03:20:25;0.81;91.30
68251;DHT22;55066;51.560;4.642;2023-02-26T03:25:34;0.92;90.19
68251;DHT22;55066;51.560;4.642;2023-02-26T03:33:46;0.71;90.49
68251;DHT22;55066;51.560;4.642;2023-02-26T03:36:18;0.74;91.27
68251;DHT22;55066;51.560;4.642;2023-02-26T03:39:00;0.70;92.62
68251;DHT22;55066;51.560;4.642;2023-02-26T03:42:33;0.71;90.04
68251;DHT22;55066;51.560;4.642;2023-02-26T03:44:53;0.69;89.60
68251;DHT22;55066;51.560;4.642;2023-02-26T03:47:22;0.69;89.72
68251;DHT22;55066;51.560;4.642;2023-02-26T03:49:58;0.63;89.55
68251;DHT22;55066;51.560;4.642;2023-02-26T03:52:27;0.56;89.75
68251;DHT22;55066;51.560;4.642;2023-02-26T03:55:18;0.70;88.34
68251;DHT22;55066;51.560;4.642;2023-02-26T03:57:56;0.67;88.61
68251;DHT22;55066;51.560;4.642;2023-02-26T04:00:41;0.73;87.44
68251;DHT22;55066;51.560;4.642;2023-02-26T04:03:27;0.60;87.67
68251;DHT22;55066;51.560;4.642;2023-02-26T04:05:55;0.59;88.33
68251;DHT22;55066;51.560;4.642;2023-02-26T04:08:21;0.53;88.61
68251;DHT22;55066;51.560;4.642;2023-02-26T04:11:37;0.43;88.45
68251;DHT22;55066;51.560;4.642;2023-02-26T04:13:38;0.43;88.32
68251;DHT22;55066;51.560;4.642;2023-02-26T04:16:03;0.48;88.15
68251;DHT22;55066;51.560;4.642;2023-02-26T04:18:29;0.49;87.71
68251;DHT22;55066;51.560;4.642;2023-02-26T04:20:55;0.53;87.72
68251;DHT22;55066;51.560;4.642;2023-02-26T04:23:21;0.36;89.27
68251;DHT22;55066;51.560;4.642;2023-02-26T04:25:46;0.46;87.92
68251;DHT22;55066;51.560;4.642;2023-02-26T04:28:14;0.38;89.24
68251;DHT22;55066;51.560;4.642;2023-02-26T04:30:40;0.36;88.17
68251;DHT22;55066;51.560;4.642;2023-02-26T04:33:07;0.24;87.92
68251;DHT22;55066;51.560;4.642;2023-02-26T04:35:33;0.21;89.19
68251;DHT22;55066;51.560;4.642;2023-02-26T04:37:58;0.24;88.65
68251;DHT22;55066;51.560;4.642;2023-02-26T04:40:24;0.26;87.94
68251;DHT22;55066;51.560;4.642;2023-02-26T04:42:49;0.25;89.26
68251;DHT22;55066;51.560;4.642;2023-02-26T04:45:20;0.16;88.15
68251;DHT22;55066;51.560;4.642;2023-02-26T04:47:46;0.15;89.42
68251;DHT22;55066;51.560;4.642;2023-02-26T04:50:11;0.05;89.46
68251;DHT22;55066;51.560;4.642;2023-02-26T04:52:37;0.02;88.71
68251;DHT22;55066;51.560;4.642;2023-02-26T04:55:03;0.16;89.28
68251;DHT22;55066;51.560;4.642;2023-02-26T04:57:28;0.25;87.40
68251;DHT22;55066;51.560;4.642;2023-02-26T04:59:54;0.21;86.84
68251;DHT22;55066;51.560;4.642;2023-02-26T05:02:21;0.14;86.99
68251;DHT22;55066;51.560;4.642;2023-02-26T05:04:49;0.05;87.36
68251;DHT22;55066;51.560;4.642;2023-02-26T05:07:15;0.01;87.71
68251;DHT22;55066;51.560;4.642;2023-02-26T05:09:40;0.05;88.03
68251;DHT22;55066;51.560;4.642;2023-02-26T05:12:06;0.08;87.04
68251;DHT22;55066;51.560;4.642;2023-02-26T05:14:31;-0.03;88.54
68251;DHT22;55066;51.560;4.642;2023-02-26T05:16:57;-0.05;87.36
68251;DHT22;55066;51.560;4.642;2023-02-26T05:19:22;-0.02;88.29
68251;DHT22;55066;51.560;4.642;2023-02-26T05:21:48;-0.03;88.48
68251;DHT22;55066;51.560;4.642;2023-02-26T05:24:14;-0.13;88.03
68251;DHT22;55066;51.560;4.642;2023-02-26T05:26:43;-0.01;87.05
68251;DHT22;55066;51.560;4.642;2023-02-26T05:29:08;-0.12;88.10
68251;DHT22;55066;51.560;4.642;2023-02-26T05:31:34;-0.17;87.28
68251;DHT22;55066;51.560;4.642;2023-02-26T05:33:59;-0.17;88.31
68251;DHT22;55066;51.560;4.642;2023-02-26T05:36:25;-0.30;88.16
68251;DHT22;55066;51.560;4.642;2023-02-26T05:38:50;-0.38;89.54
68251;DHT22;55066;51.560;4.642;2023-02-26T05:41:17;-0.29;88.14
68251;DHT22;55066;51.560;4.642;2023-02-26T05:43:43;-0.14;87.34
68251;DHT22;55066;51.560;4.642;2023-02-26T05:46:08;-0.40;88.80
68251;DHT22;55066;51.560;4.642;2023-02-26T05:48:34;-0.40;89.73
68251;DHT22;55066;51.560;4.642;2023-02-26T05:50:59;-0.44;87.72
68251;DHT22;55066;51.560;4.642;2023-02-26T05:53:25;-0.62;88.66
68251;DHT22;55066;51.560;4.642;2023-02-26T05:55:52;-0.68;91.42
68251;DHT22;55066;51.560;4.642;2023-02-26T05:58:17;-0.60;91.29
68251;DHT22;55066;51.560;4.642;2023-02-26T06:00:43;-0.61;88.71
68251;DHT22;55066;51.560;4.642;2023-02-26T06:03:09;-0.64;89.31
68251;DHT22;55066;51.560;4.642;2023-02-26T06:05:34;-0.54;88.09
68251;DHT22;55066;51.560;4.642;2023-02-26T06:08:01;-0.56;89.43
68251;DHT22;55066;51.560;4.642;2023-02-26T06:10:26;-0.57;88.16
68251;DHT22;55066;51.560;4.642;2023-02-26T06:12:51;-0.61;88.09
68251;DHT22;55066;51.560;4.642;2023-02-26T06:15:17;-0.53;89.90
68251;DHT22;55066;51.560;4.642;2023-02-26T06:17:42;-0.53;87.70
68251;DHT22;55066;51.560;4.642;2023-02-26T06:20:09;-0.64;88.58
68251;DHT22;55066;51.560;4.642;2023-02-26T06:22:34;-0.60;87.52
68251;DHT22;55066;51.560;4.642;2023-02-26T06:25:00;-0.57;88.24
68251;DHT22;55066;51.560;4.642;2023-02-26T06:27:25;-0.37;87.59
68251;DHT22;55066;51.560;4.642;2023-02-26T06:29:51;-0.51;87.61
68251;DHT22;55066;51.560;4.642;2023-02-26T06:32:16;-0.54;87.63
68251;DHT22;55066;51.560;4.642;2023-02-26T06:34:42;-0.68;88.27
68251;DHT22;55066;51.560;4.642;2023-02-26T06:37:07;-0.69;88.26
68251;DHT22;55066;51.560;4.642;2023-02-26T06:39:32;-0.58;87.38
68251;DHT22;55066;51.560;4.642;2023-02-26T06:41:58;-0.69;88.32
68251;DHT22;55066;51.560;4.642;2023-02-26T06:44:24;-0.60;90.66
68251;DHT22;55066;51.560;4.642;2023-02-26T06:46:49;-0.71;88.20
68251;DHT22;55066;51.560;4.642;2023-02-26T06:49:15;-0.64;88.24
68251;DHT22;55066;51.560;4.642;2023-02-26T06:51:40;-0.67;88.06
68251;DHT22;55066;51.560;4.642;2023-02-26T06:54:06;-0.62;87.92
68251;DHT22;55066;51.560;4.642;2023-02-26T06:56:31;-0.64;87.50
68251;DHT22;55066;51.560;4.642;2023-02-26T06:58:56;-0.50;88.87
68251;DHT22;55066;51.560;4.642;2023-02-26T07:01:22;-0.56;87.24
68251;DHT22;55066;51.560;4.642;2023-02-26T07:03:48;-0.53;86.79
68251;DHT22;55066;51.560;4.642;2023-02-26T07:06:14;-0.58;88.56
68251;DHT22;55066;51.560;4.642;2023-02-26T07:08:43;-0.50;86.89
68251;DHT22;55066;51.560;4.642;2023-02-26T07:11:08;-0.49;87.33
68251;DHT22;55066;51.560;4.642;2023-02-26T07:13:36;-0.53;87.04
68251;DHT22;55066;51.560;4.642;2023-02-26T07:16:04;-0.53;86.47
68251;DHT22;55066;51.560;4.642;2023-02-26T07:18:35;-0.34;86.77
68251;DHT22;55066;51.560;4.642;2023-02-26T07:21:02;-0.40;86.90
68251;DHT22;55066;51.560;4.642;2023-02-26T07:23:27;-0.24;86.86
68251;DHT22;55066;51.560;4.642;2023-02-26T07:25:53;-0.22;86.25
68251;DHT22;55066;51.560;4.642;2023-02-26T07:28:18;-0.29;86.20
68251;DHT22;55066;51.560;4.642;2023-02-26T07:30:45;-0.23;88.01
68251;DHT22;55066;51.560;4.642;2023-02-26T07:33:11;-0.12;86.26
68251;DHT22;55066;51.560;4.642;2023-02-26T07:35:36;0.04;85.39
68251;DHT22;55066;51.560;4.642;2023-02-26T07:38:02;-0.02;85.18
68251;DHT22;55066;51.560;4.642;2023-02-26T07:40:28;0.01;85.14
68251;DHT22;55066;51.560;4.642;2023-02-26T07:42:53;0.09;84.91
68251;DHT22;55066;51.560;4.642;2023-02-26T07:45:19;0.19;84.88
68251;DHT22;55066;51.560;4.642;2023-02-26T07:47:50;0.26;84.42
68251;DHT22;55066;51.560;4.642;2023-02-26T07:50:17;0.28;88.06
68251;DHT22;55066;51.560;4.642;2023-02-26T07:52:43;0.36;84.60
68251;DHT22;55066;51.560;4.642;2023-02-26T07:55:09;0.50;84.33
68251;DHT22;55066;51.560;4.642;2023-02-26T07:57:34;0.48;85.02
68251;DHT22;55066;51.560;4.642;2023-02-26T08:00:00;0.53;84.78
68251;DHT22;55066;51.560;4.642;2023-02-26T08:02:26;0.54;85.31
68251;DHT22;55066;51.560;4.642;2023-02-26T08:04:51;0.64;85.85
68251;DHT22;55066;51.560;4.642;2023-02-26T08:07:17;0.73;84.04
68251;DHT22;55066;51.560;4.642;2023-02-26T08:09:43;0.76;84.56
68251;DHT22;55066;51.560;4.642;2023-02-26T08:12:08;0.88;83.04
68251;DHT22;55066;51.560;4.642;2023-02-26T08:14:34;0.91;84.18
68251;DHT22;55066;51.560;4.642;2023-02-26T08:16:59;0.92;83.56
68251;DHT22;55066;51.560;4.642;2023-02-26T08:19:25;1.00;84.41
68251;DHT22;55066;51.560;4.642;2023-02-26T08:21:50;1.08;83.45
68251;DHT22;55066;51.560;4.642;2023-02-26T08:24:16;1.09;84.24
68251;DHT22;55066;51.560;4.642;2023-02-26T08:26:41;1.29;82.18
68251;DHT22;55066;51.560;4.642;2023-02-26T08:29:07;1.31;83.09
68251;DHT22;55066;51.560;4.642;2023-02-26T08:31:32;1.39;81.65
68251;DHT22;55066;51.560;4.642;2023-02-26T08:34:00;1.40;82.67
68251;DHT22;55066;51.560;4.642;2023-02-26T08:36:29;1.57;81.37
68251;DHT22;55066;51.560;4.642;2023-02-26T08:38:55;1.57;81.23
68251;DHT22;55066;51.560;4.642;2023-02-26T08:41:20;1.62;81.37
68251;DHT22;55066;51.560;4.642;2023-02-26T08:43:47;1.64;81.44
68251;DHT22;55066;51.560;4.642;2023-02-26T08:46:12;1.70;81.84
68251;DHT22;55066;51.560;4.642;2023-02-26T08:48:38;1.81;81.89
68251;DHT22;55066;51.560;4.642;2023-02-26T08:51:04;1.81;82.40
68251;DHT22;55066;51.560;4.642;2023-02-26T08:53:29;1.88;80.49
68251;DHT22;55066;51.560;4.642;2023-02-26T08:55:54;1.98;80.97
68251;DHT22;55066;51.560;4.642;2023-02-26T08:58:20;1.94;81.31
68251;DHT22;55066;51.560;4.642;2023-02-26T09:00:46;2.00;80.54
68251;DHT22;55066;51.560;4.642;2023-02-26T09:03:11;1.97;80.82
68251;DHT22;55066;51.560;4.642;2023-02-26T09:05:37;2.11;80.03
68251;DHT22;55066;51.560;4.642;2023-02-26T09:08:03;2.20;79.86
68251;DHT22;55066;51.560;4.642;2023-02-26T09:10:29;2.17;80.97
68251;DHT22;55066;51.560;4.642;2023-02-26T09:12:54;2.12;80.17
68251;DHT22;55066;51.560;4.642;2023-02-26T09:15:20;2.17;79.32
68251;DHT22;55066;51.560;4.642;2023-02-26T09:17:46;2.26;79.10
68251;DHT22;55066;51.560;4.642;2023-02-26T09:20:13;2.28;79.35
68251;DHT22;55066;51.560;4.642;2023-02-26T09:22:38;2.33;78.91
68251;DHT22;55066;51.560;4.642;2023-02-26T09:25:05;2.39;79.45
68251;DHT22;55066;51.560;4.642;2023-02-26T09:27:30;2.32;78.43
68251;DHT22;55066;51.560;4.642;2023-02-26T09:29:56;2.26;79.72
68251;DHT22;55066;51.560;4.642;2023-02-26T09:32:21;2.39;78.12
68251;DHT22;55066;51.560;4.642;2023-02-26T09:34:47;2.33;78.42
68251;DHT22;55066;51.560;4.642;2023-02-26T09:37:13;2.42;77.83
68251;DHT22;55066;51.560;4.642;2023-02-26T09:39:38;2.61;77.82
68251;DHT22;55066;51.560;4.642;2023-02-26T09:44:48;2.57;79.53
68251;DHT22;55066;51.560;4.642;2023-02-26T09:47:39;2.72;76.78
68251;DHT22;55066;51.560;4.642;2023-02-26T09:50:17;2.72;78.42
68251;DHT22;55066;51.560;4.642;2023-02-26T09:53:04;2.76;77.17
68251;DHT22;55066;51.560;4.642;2023-02-26T09:55:35;2.76;79.10
68251;DHT22;55066;51.560;4.642;2023-02-26T09:58:05;2.79;77.86
68251;DHT22;55066;51.560;4.642;2023-02-26T10:00:45;2.73;77.28
68251;DHT22;55066;51.560;4.642;2023-02-26T10:06:15;2.88;77.38
68251;DHT22;55066;51.560;4.642;2023-02-26T10:11:39;2.88;77.56
68251;DHT22;55066;51.560;4.642;2023-02-26T10:16:46;3.09;78.80
68251;DHT22;55066;51.560;4.642;2023-02-26T10:19:18;3.14;75.82
68251;DHT22;55066;51.560;4.642;2023-02-26T10:24:18;3.40;72.86
68251;DHT22;55066;51.560;4.642;2023-02-26T10:27:04;3.22;75.01
68251;DHT22;55066;51.560;4.642;2023-02-26T10:29:39;3.28;72.50
68251;DHT22;55066;51.560;4.642;2023-02-26T10:32:27;3.35;71.89
68251;DHT22;55066;51.560;4.642;2023-02-26T10:34:57;3.46;73.89
68251;DHT22;55066;51.560;4.642;2023-02-26T10:40:15;3.24;73.02
68251;DHT22;55066;51.560;4.642;2023-02-26T10:42:47;3.42;75.22
68251;DHT22;55066;51.560;4.642;2023-02-26T10:45:36;3.42;74.22
68251;DHT22;55066;51.560;4.642;2023-02-26T10:50:34;3.49;72.42
68251;DHT22;55066;51.560;4.642;2023-02-26T10:52:59;3.55;71.13
68251;DHT22;55066;51.560;4.642;2023-02-26T10:58:22;3.73;71.27
68251;DHT22;55066;51.560;4.642;2023-02-26T11:00:50;3.73;67.69
68251;DHT22;55066;51.560;4.642;2023-02-26T11:03:20;3.91;70.45
68251;DHT22;55066;51.560;4.642;2023-02-26T11:05:46;4.08;68.49
68251;DHT22;55066;51.560;4.642;2023-02-26T11:08:39;4.11;69.96
68251;DHT22;55066;51.560;4.642;2023-02-26T11:11:07;3.97;70.25
68251;DHT22;55066;51.560;4.642;2023-02-26T11:13:34;3.87;70.20
68251;DHT22;55066;51.560;4.642;2023-02-26T11:16:20;4.10;72.67
68251;DHT22;55066;51.560;4.642;2023-02-26T11:18:49;4.05;71.11
68251;DHT22;55066;51.560;4.642;2023-02-26T11:21:23;4.05;75.67
68251;DHT22;55066;51.560;4.642;2023-02-26T11:24:20;4.12;71.59
68251;DHT22;55066;51.560;4.642;2023-02-26T11:26:49;4.19;70.37
68251;DHT22;55066;51.560;4.642;2023-02-26T11:29:19;4.48;71.47
68251;DHT22;55066;51.560;4.642;2023-02-26T11:31:52;4.52;70.25
68251;DHT22;55066;51.560;4.642;2023-02-26T11:34:24;4.57;69.22
68251;DHT22;55066;51.560;4.642;2023-02-26T11:36:52;4.67;69.14
68251;DHT22;55066;51.560;4.642;2023-02-26T11:39:28;5.05;67.15
68251;DHT22;55066;51.560;4.642;2023-02-26T11:41:57;5.31;66.96
68251;DHT22;55066;51.560;4.642;2023-02-26T11:44:45;4.69;68.05
68251;DHT22;55066;51.560;4.642;2023-02-26T11:47:14;4.69;71.21
68251;DHT22;55066;51.560;4.642;2023-02-26T11:49:51;4.75;70.72
68251;DHT22;55066;51.560;4.642;2023-02-26T11:52:34;4.83;69.47
68251;DHT22;55066;51.560;4.642;2023-02-26T11:55:02;4.86;67.50
68251;DHT22;55066;51.560;4.642;2023-02-26T11:57:29;4.67;68.31
68251;DHT22;55066;51.560;4.642;2023-02-26T11:59:57;4.88;70.82
68251;DHT22;55066;51.560;4.642;2023-02-26T12:02:26;4.94;68.68
68251;DHT22;55066;51.560;4.642;2023-02-26T12:04:58;4.98;69.88
68251;DHT22;55066;51.560;4.642;2023-02-26T12:07:25;5.30;69.30
68251;DHT22;55066;51.560;4.642;2023-02-26T12:09:50;4.91;70.34
68251;DHT22;55066;51.560;4.642;2023-02-26T12:15:00;5.45;69.10
68251;DHT22;55066;51.560;4.642;2023-02-26T12:26:33;5.67;68.23
68251;DHT22;55066;51.560;4.642;2023-02-26T12:29:30;5.66;73.27
68251;DHT22;55066;51.560;4.642;2023-02-26T12:38:18;5.15;65.96
68251;DHT22;55066;51.560;4.642;2023-02-26T12:43:31;5.45;69.34
68251;DHT22;55066;51.560;4.642;2023-02-26T12:49:19;5.60;66.72
68251;DHT22;55066;51.560;4.642;2023-02-26T13:03:32;5.71;68.28
68251;DHT22;55066;51.560;4.642;2023-02-26T13:06:20;5.87;68.02
68251;DHT22;55066;51.560;4.642;2023-02-26T13:08:52;5.93;74.33
68251;DHT22;55066;51.560;4.642;2023-02-26T13:14:20;5.97;73.07
68251;DHT22;55066;51.560;4.642;2023-02-26T13:17:12;6.25;72.51
68251;DHT22;55066;51.560;4.642;2023-02-26T13:19:46;6.14;68.27
68251;DHT22;55066;51.560;4.642;2023-02-26T13:22:27;6.39;75.70
68251;DHT22;55066;51.560;4.642;2023-02-26T13:24:59;6.52;65.11
68251;DHT22;55066;51.560;4.642;2023-02-26T13:27:30;6.49;67.68
68251;DHT22;55066;51.560;4.642;2023-02-26T13:30:19;6.34;65.90
68251;DHT22;55066;51.560;4.642;2023-02-26T13:32:48;6.32;65.83
68251;DHT22;55066;51.560;4.642;2023-02-26T13:35:28;6.25;66.69
68251;DHT22;55066;51.560;4.642;2023-02-26T13:37:57;6.18;63.92
68251;DHT22;55066;51.560;4.642;2023-02-26T13:40:46;6.34;69.39
68251;DHT22;55066;51.560;4.642;2023-02-26T13:49:00;6.32;64.77
68251;DHT22;55066;51.560;4.642;2023-02-26T13:51:41;6.57;73.40
68251;DHT22;55066;51.560;4.642;2023-02-26T14:01:55;6.29;67.29
68251;DHT22;55066;51.560;4.642;2023-02-26T14:04:23;6.36;65.18
68251;DHT22;55066;51.560;4.642;2023-02-26T14:06:57;6.22;64.18
68251;DHT22;55066;51.560;4.642;2023-02-26T14:14:39;6.92;67.93
68251;DHT22;55066;51.560;4.642;2023-02-26T14:19:41;6.90;70.14
68251;DHT22;55066;51.560;4.642;2023-02-26T14:22:33;6.93;67.34
68251;DHT22;55066;51.560;4.642;2023-02-26T14:25:28;6.62;70.64
68251;DHT22;55066;51.560;4.642;2023-02-26T14:30:51;7.03;77.25
68251;DHT22;55066;51.560;4.642;2023-02-26T14:33:18;6.77;69.21
68251;DHT22;55066;51.560;4.642;2023-02-26T14:35:52;6.42;67.48
68251;DHT22;55066;51.560;4.642;2023-02-26T14:38:30;6.48;75.06
68251;DHT22;55066;51.560;4.642;2023-02-26T14:41:04;6.61;75.25
68251;DHT22;55066;51.560;4.642;2023-02-26T14:43:43;6.34;66.96
68251;DHT22;55066;51.560;4.642;2023-02-26T14:46:10;6.53;76.26
68251;DHT22;55066;51.560;4.642;2023-02-26T14:48:37;6.27;67.08
68251;DHT22;55066;51.560;4.642;2023-02-26T14:54:16;7.32;70.71
68251;DHT22;55066;51.560;4.642;2023-02-26T15:00:25;8.93;63.62
68251;DHT22;55066;51.560;4.642;2023-02-26T15:12:05;7.54;63.01
68251;DHT22;55066;51.560;4.642;2023-02-26T15:17:30;7.36;63.64
68251;DHT22;55066;51.560;4.642;2023-02-26T15:25:29;7.58;67.31
68251;DHT22;55066;51.560;4.642;2023-02-26T15:27:56;7.75;66.07
68251;DHT22;55066;51.560;4.642;2023-02-26T15:30:22;7.59;67.01
68251;DHT22;55066;51.560;4.642;2023-02-26T15:32:55;7.20;69.17
68251;DHT22;55066;51.560;4.642;2023-02-26T15:35:21;7.44;69.28
68251;DHT22;55066;51.560;4.642;2023-02-26T15:37:53;7.59;65.56
68251;DHT22;55066;51.560;4.642;2023-02-26T15:40:20;7.05;66.03
68251;DHT22;55066;51.560;4.642;2023-02-26T15:42:51;7.11;65.21
68251;DHT22;55066;51.560;4.642;2023-02-26T15:47:53;7.22;66.84
68251;DHT22;55066;51.560;4.642;2023-02-26T15:50:20;6.89;66.46
68251;DHT22;55066;51.560;4.642;2023-02-26T15:52:52;6.63;66.39
68251;DHT22;55066;51.560;4.642;2023-02-26T15:55:20;7.03;70.04
68251;DHT22;55066;51.560;4.642;2023-02-26T15:57:46;7.07;68.08
68251;DHT22;55066;51.560;4.642;2023-02-26T16:00:16;6.76;64.88
68251;DHT22;55066;51.560;4.642;2023-02-26T16:02:49;6.84;66.51
68251;DHT22;55066;51.560;4.642;2023-02-26T16:05:15;6.89;66.54
68251;DHT22;55066;51.560;4.642;2023-02-26T16:07:42;6.89;69.81
68251;DHT22;55066;51.560;4.642;2023-02-26T16:10:16;6.82;66.71
68251;DHT22;55066;51.560;4.642;2023-02-26T16:12:43;6.71;69.01
68251;DHT22;55066;51.560;4.642;2023-02-26T16:15:21;6.62;69.45
68251;DHT22;55066;51.560;4.642;2023-02-26T16:17:52;6.82;71.67
68251;DHT22;55066;51.560;4.642;2023-02-26T16:20:21;6.84;75.19
68251;DHT22;55066;51.560;4.642;2023-02-26T16:22:55;6.56;67.09
68251;DHT22;55066;51.560;4.642;2023-02-26T16:25:48;6.25;68.37
68251;DHT22;55066;51.560;4.642;2023-02-26T16:28:18;6.27;71.09
68251;DHT22;55066;51.560;4.642;2023-02-26T16:30:48;6.01;71.12
68251;DHT22;55066;51.560;4.642;2023-02-26T16:33:16;5.76;69.67
68251;DHT22;55066;51.560;4.642;2023-02-26T16:35:56;5.55;70.64
68251;DHT22;55066;51.560;4.642;2023-02-26T16:38:30;5.48;69.93
68251;DHT22;55066;51.560;4.642;2023-02-26T16:41:04;5.39;69.53
68251;DHT22;55066;51.560;4.642;2023-02-26T16:46:18;5.43;70.63
68251;DHT22;55066;51.560;4.642;2023-02-26T16:48:50;5.38;71.65
68251;DHT22;55066;51.560;4.642;2023-02-26T16:51:19;5.34;74.99
68251;DHT22;55066;51.560;4.642;2023-02-26T16:53:48;5.17;68.46
68251;DHT22;55066;51.560;4.642;2023-02-26T16:56:18;5.08;70.80
68251;DHT22;55066;51.560;4.642;2023-02-26T16:58:50;5.20;79.54
68251;DHT22;55066;51.560;4.642;2023-02-26T17:01:18;5.01;70.88
68251;DHT22;55066;51.560;4.642;2023-02-26T17:03:46;5.04;74.54
68251;DHT22;55066;51.560;4.642;2023-02-26T17:06:15;4.86;74.87
68251;DHT22;55066;51.560;4.642;2023-02-26T17:08:50;4.76;71.56
68251;DHT22;55066;51.560;4.642;2023-02-26T17:11:29;4.70;73.66
68251;DHT22;55066;51.560;4.642;2023-02-26T17:14:14;4.62;78.88
68251;DHT22;55066;51.560;4.642;2023-02-26T17:16:44;4.60;76.90
68251;DHT22;55066;51.560;4.642;2023-02-26T17:19:10;4.55;78.43
68251;DHT22;55066;51.560;4.642;2023-02-26T17:21:41;4.35;76.51
68251;DHT22;55066;51.560;4.642;2023-02-26T17:24:18;4.32;75.21
68251;DHT22;55066;51.560;4.642;2023-02-26T17:26:45;4.21;76.21
68251;DHT22;55066;51.560;4.642;2023-02-26T17:29:17;4.17;76.50
68251;DHT22;55066;51.560;4.642;2023-02-26T17:31:43;4.11;80.47
68251;DHT22;55066;51.560;4.642;2023-02-26T17:34:10;4.19;78.26
68251;DHT22;55066;51.560;4.642;2023-02-26T17:36:36;4.02;79.77
68251;DHT22;55066;51.560;4.642;2023-02-26T17:39:01;3.98;78.30
68251;DHT22;55066;51.560;4.642;2023-02-26T17:41:27;4.07;80.65
68251;DHT22;55066;51.560;4.642;2023-02-26T17:43:55;3.89;79.96
68251;DHT22;55066;51.560;4.642;2023-02-26T17:46:20;3.87;82.01
68251;DHT22;55066;51.560;4.642;2023-02-26T17:48:46;3.97;84.18
68251;DHT22;55066;51.560;4.642;2023-02-26T17:51:11;3.83;82.39
68251;DHT22;55066;51.560;4.642;2023-02-26T17:53:38;3.81;85.24
68251;DHT22;55066;51.560;4.642;2023-02-26T17:56:16;3.95;85.29
68251;DHT22;55066;51.560;4.642;2023-02-26T17:58:44;3.81;83.01
68251;DHT22;55066;51.560;4.642;2023-02-26T18:01:09;3.74;83.39
68251;DHT22;55066;51.560;4.642;2023-02-26T18:03:35;3.74;84.36
68251;DHT22;55066;51.560;4.642;2023-02-26T18:06:01;3.69;84.68
68251;DHT22;55066;51.560;4.642;2023-02-26T18:08:28;3.70;83.81
68251;DHT22;55066;51.560;4.642;2023-02-26T18:10:55;3.62;83.45
68251;DHT22;55066;51.560;4.642;2023-02-26T18:13:21;3.63;84.08
68251;DHT22;55066;51.560;4.642;2023-02-26T18:15:48;3.64;84.68
68251;DHT22;55066;51.560;4.642;2023-02-26T18:18:14;3.67;84.13
68251;DHT22;55066;51.560;4.642;2023-02-26T18:20:41;3.55;84.61
68251;DHT22;55066;51.560;4.642;2023-02-26T18:23:08;3.52;85.13
68251;DHT22;55066;51.560;4.642;2023-02-26T18:25:36;3.55;84.70
68251;DHT22;55066;51.560;4.642;2023-02-26T18:28:03;3.43;84.50
68251;DHT22;55066;51.560;4.642;2023-02-26T18:30:33;3.62;86.65
68251;DHT22;55066;51.560;4.642;2023-02-26T18:33:00;3.52;85.47
68251;DHT22;55066;51.560;4.642;2023-02-26T18:35:28;3.43;85.21
68251;DHT22;55066;51.560;4.642;2023-02-26T18:37:54;3.35;86.29
68251;DHT22;55066;51.560;4.642;2023-02-26T18:40:22;3.43;85.51
68251;DHT22;55066;51.560;4.642;2023-02-26T18:42:48;3.40;85.27